地図

経路データ

SID SEASON NUMBER BASIN SUBBASIN NAME ISO_TIME NATURE LAT LON WMO_WIND WMO_PRES WMO_AGENCY TRACK_TYPE DIST2LAND LANDFALL IFLAG USA_AGENCY USA_ATCF_ID USA_LAT USA_LON USA_RECORD USA_STATUS USA_WIND USA_PRES USA_SSHS USA_R34_NE USA_R34_SE USA_R34_SW USA_R34_NW USA_R50_NE USA_R50_SE USA_R50_SW USA_R50_NW USA_R64_NE USA_R64_SE USA_R64_SW USA_R64_NW USA_POCI USA_ROCI USA_RMW USA_EYE TOKYO_LAT TOKYO_LON TOKYO_GRADE TOKYO_WIND TOKYO_PRES TOKYO_R50_DIR TOKYO_R50_LONG TOKYO_R50_SHORT TOKYO_R30_DIR TOKYO_R30_LONG TOKYO_R30_SHORT TOKYO_LAND CMA_LAT CMA_LON CMA_CAT CMA_WIND CMA_PRES HKO_LAT HKO_LON HKO_CAT HKO_WIND HKO_PRES NEWDELHI_LAT NEWDELHI_LON NEWDELHI_GRADE NEWDELHI_WIND NEWDELHI_PRES NEWDELHI_CI NEWDELHI_DP NEWDELHI_POCI REUNION_LAT REUNION_LON REUNION_TYPE REUNION_WIND REUNION_PRES REUNION_TNUM REUNION_CI REUNION_RMW REUNION_R34_NE REUNION_R34_SE REUNION_R34_SW REUNION_R34_NW REUNION_R50_NE REUNION_R50_SE REUNION_R50_SW REUNION_R50_NW REUNION_R64_NE REUNION_R64_SE REUNION_R64_SW REUNION_R64_NW BOM_LAT BOM_LON BOM_TYPE BOM_WIND BOM_PRES BOM_TNUM BOM_CI BOM_RMW BOM_R34_NE BOM_R34_SE BOM_R34_SW BOM_R34_NW BOM_R50_NE BOM_R50_SE BOM_R50_SW BOM_R50_NW BOM_R64_NE BOM_R64_SE BOM_R64_SW BOM_R64_NW BOM_ROCI BOM_POCI BOM_EYE BOM_POS_METHOD BOM_PRES_METHOD NADI_LAT NADI_LON NADI_CAT NADI_WIND NADI_PRES WELLINGTON_LAT WELLINGTON_LON WELLINGTON_WIND WELLINGTON_PRES DS824_LAT DS824_LON DS824_STAGE DS824_WIND DS824_PRES TD9636_LAT TD9636_LON TD9636_STAGE TD9636_WIND TD9636_PRES TD9635_LAT TD9635_LON TD9635_WIND TD9635_PRES TD9635_ROCI NEUMANN_LAT NEUMANN_LON NEUMANN_CLASS NEUMANN_WIND NEUMANN_PRES MLC_LAT MLC_LON MLC_CLASS MLC_WIND MLC_PRES USA_GUST BOM_GUST BOM_GUST_PER REUNION_GUST REUNION_GUST_PER USA_SEAHGT USA_SEARAD_NE USA_SEARAD_SE USA_SEARAD_SW USA_SEARAD_NW STORM_SPEED STORM_DIR
1964084S13129 1964 22 SI WA KATIE 1964-03-23 23:30:00 NR -13.0000 129.000 1003 bom main 103 103 ______O_______ -1 -13.0000 129.000 1003 12 327
1964084S13129 1964 22 SI WA KATIE 1964-03-24 00:00:00 TS -12.9185 128.938 main 118 118 O_____P__O__O_ jtwc_sh SH281964 -12.6000 128.800 -1 -12.9963 128.944 -13.0000 129.000 TC 25 1003 -13.0000 129.000 TC 25 1003 8 281
1964084S13129 1964 22 SI WA KATIE 1964-03-24 03:00:00 TS -12.9123 128.537 main 156 144 P_____P__P__P_ SH281964 -12.6002 128.333 -1 -12.9751 128.605 -12.9797 128.627 TC -13.0627 128.550 TC 27 1001 8 271
1964084S13129 1964 22 SI WA KATIE 1964-03-24 06:00:00 TS -12.9097 128.136 main 144 119 O_____P__P__O_ jtwc_sh SH281964 -12.6000 127.900 -1 -12.9589 128.254 -12.9635 128.248 TC -13.1000 128.100 TC 30 1000 8 271
1964084S13129 1964 22 SI WA KATIE 1964-03-24 09:00:00 TS -12.9020 127.730 main 119 103 P_____P__P__P_ SH281964 -12.5999 127.528 -1 -12.9523 127.884 -12.9558 127.857 TC -13.0999 127.650 TC 32 998 8 270
1964084S13129 1964 22 SI WA KATIE 1964-03-24 12:00:00 TS -12.9053 127.333 main 103 100 O_____P__P__O_ jtwc_sh SH281964 -12.6000 127.200 -1 -12.9599 127.484 -12.9611 127.448 TC -13.1000 127.200 TC 35 997 8 268
1964084S13129 1964 22 SI WA KATIE 1964-03-24 15:00:00 TS -12.9299 126.927 main 100 92 P_____P__P__P_ SH281964 -12.5999 126.908 -1 -12.9862 127.044 -12.9838 127.014 TC -13.1500 126.743 TC 37 995 8 266
1964084S13129 1964 22 SI WA KATIE 1964-03-24 18:00:00 TS -12.9659 126.501 main 99 99 O_____P__P__O_ jtwc_sh SH281964 -12.6000 126.600 -1 -13.0355 126.556 -13.0283 126.549 TC -13.2000 126.300 TC 40 993 8 266
1964084S13129 1964 22 SI WA KATIE 1964-03-24 21:00:00 TS -12.9913 126.076 main 111 111 P_____P__P__P_ SH281964 -12.5770 126.297 -1 -13.1121 126.008 -13.0989 126.047 TC -13.1770 125.952 TC 42 991 9 266
1964084S13129 1964 22 SI WA KATIE 1964-03-24 23:00:00 TS -13.0172 125.746 main 120 120 P_____P__P__P_ SH281964 -12.5825 126.001 -1 -13.1806 125.606 -13.1627 125.688 TC -13.1795 125.676 TC 44 990 10 266
1964084S13129 1964 22 SI WA KATIE 1964-03-24 23:30:00 TS -13.0194 125.656 990 bom main 120 120 P_____O__P__P_ SH281964 -12.5897 125.906 -1 -13.2000 125.500 990 -13.1809 125.594 TC -13.1877 125.592 TC 44 990 11 269
1964084S13129 1964 22 SI WA KATIE 1964-03-25 00:00:00 TS -13.0217 125.559 main 124 129 O_____P__O__O_ jtwc_sh SH281964 -12.6000 125.800 -1 -13.2204 125.392 -13.2000 125.500 TC 45 990 -13.2000 125.500 TC 45 990 14 261
1964084S13129 1964 22 SI WA KATIE 1964-03-25 03:00:00 TS -13.1458 124.801 main 159 150 P_____P__P__P_ SH281964 -12.7128 124.940 -1 -13.3620 124.704 -13.3344 124.905 TC -13.3627 124.760 TC 45 990 16 259
1964084S13129 1964 22 SI WA KATIE 1964-03-25 06:00:00 TS -13.3443 123.920 main 202 194 O_____P__P__O_ jtwc_sh SH281964 -12.9000 123.900 -1 -13.5329 123.959 -13.4995 124.266 TC -13.6000 123.900 TC 45 990 18 256
1964084S13129 1964 22 SI WA KATIE 1964-03-25 09:00:00 TS -13.5609 123.055 main 252 262 P_____P__P__P_ SH281964 -13.1124 122.892 -1 -13.7282 123.173 -13.6913 123.591 TC -13.8422 123.100 TC 45 990 17 255
1964084S13129 1964 22 SI WA KATIE 1964-03-25 11:00:00 TS -13.7259 122.475 main 295 294 P_____P__P__P_ SH281964 -13.2942 122.224 -1 -13.8697 122.634 -13.8320 123.125 TC -14.0139 122.567 TC 45 990 18 253
1964084S13129 1964 22 SI WA KATIE 1964-03-25 12:00:00 TS -13.8145 122.188 main 310 303 O_____P__P__O_ jtwc_sh SH281964 -13.4000 121.900 -1 -13.9434 122.363 -13.9057 122.888 TC -14.1000 122.300 TC 45 990 18 251
1964084S13129 1964 22 SI WA KATIE 1964-03-25 15:00:00 TS -14.1078 121.331 main 318 315 P_____P__P__P_ SH281964 -13.7924 120.940 -1 -14.1738 121.546 -14.1390 122.164 TC -14.3572 121.507 TC 45 990 17 250
1964084S13129 1964 22 SI WA KATIE 1964-03-25 18:00:00 TS -14.4051 120.514 main 348 348 O_____P__P__O_ jtwc_sh SH281964 -14.2000 120.100 -1 -14.4154 120.741 -14.3872 121.428 TC -14.6000 120.700 TC 45 990 17 250
1964084S13129 1964 22 SI WA KATIE 1964-03-25 21:00:00 TS -14.6696 119.728 main 386 386 P_____P__P__P_ SH281964 -14.5447 119.417 -1 -14.6640 119.963 -14.6466 120.687 TC -14.8003 119.805 TC 45 990 15 251
1964084S13129 1964 22 SI WA KATIE 1964-03-25 23:00:00 TS -14.8300 119.257 main 411 412 P_____P__P__P_ SH281964 -14.7280 119.056 -1 -14.8318 119.469 -14.8238 120.195 TC -14.9304 119.246 TC 45 990 14 250
1964084S13129 1964 22 SI WA KATIE 1964-03-26 00:00:00 TS -14.9053 119.044 main 430 430 O_____P__P__O_ jtwc_sh SH281964 -14.8000 118.900 -1 -14.9159 119.231 -14.9133 119.950 TC -15.0000 119.000 TC 45 990 13 250
1964084S13129 1964 22 SI WA KATIE 1964-03-26 01:00:00 TS -14.9760 118.849 990 bom main 441 441 P_____O__P__P_ SH281964 -14.8508 118.755 -1 -15.0000 119.000 990 -15.0032 119.707 TC -15.0773 118.793 TC 45 989 11 249
1964084S13129 1964 22 SI WA KATIE 1964-03-26 03:00:00 TS -15.1082 118.507 main 463 463 P_____P__P__P_ SH281964 -14.9147 118.512 -1 -15.1680 118.561 -15.1838 119.226 TC -15.2420 118.447 TC 47 989 10 247
1964084S13129 1964 22 SI WA KATIE 1964-03-26 06:00:00 TS -15.3096 118.044 main 501 501 O_____P__P__O_ jtwc_sh SH281964 -15.0000 118.200 -1 -15.4287 117.933 -15.4546 118.521 TC -15.5000 118.000 TC 50 988 10 244
1964084S13129 1964 22 SI WA KATIE 1964-03-26 09:00:00 TS -15.5433 117.569 main 530 524 P_____P__P__P_ SH281964 -15.1849 117.865 -1 -15.6951 117.343 -15.7221 117.846 TC -15.7499 117.500 TC 52 986 10 242
1964084S13129 1964 22 SI WA KATIE 1964-03-26 11:00:00 TS -15.7060 117.256 main 527 521 P_____P__P__P_ SH281964 -15.3280 117.628 -1 -15.8735 116.973 -15.8971 117.415 TC -15.9166 117.167 TC 54 985 10 242
1964084S13129 1964 22 SI WA KATIE 1964-03-26 12:00:00 TS -15.7874 117.099 main 525 514 O_____P__P__O_ jtwc_sh SH281964 -15.4000 117.500 -1 -15.9622 116.796 -15.9832 117.207 TC -16.0000 117.000 TC 55 985 10 243
1964084S13129 1964 22 SI WA KATIE 1964-03-26 15:00:00 TS -16.0249 116.615 main 514 485 P_____P__P__P_ SH281964 -15.6001 117.050 -1 -16.2248 116.294 -16.2346 116.615 TC -16.2499 116.500 TC 55 984 10 243
1964084S13129 1964 22 SI WA KATIE 1964-03-26 18:00:00 TS -16.2592 116.147 main 485 468 O_____P__P__O_ jtwc_sh SH281964 -15.8000 116.600 -1 -16.4776 115.842 -16.4732 116.078 TC -16.5000 116.000 TC 55 983 10 241
1964084S13129 1964 22 SI WA KATIE 1964-03-26 21:00:00 TS -16.4985 115.706 main 470 462 P_____P__P__P_ SH281964 -16.0149 116.227 -1 -16.7153 115.443 -16.6960 115.603 TC -16.7652 115.448 TC 57 981 9 240
1964084S13129 1964 22 SI WA KATIE 1964-03-26 23:00:00 TS -16.6453 115.447 main 468 457 P_____P__P__P_ SH281964 -16.1447 116.006 -1 -16.8629 115.208 -16.8342 115.326 TC -16.9282 115.127 TC 59 980 9 238
1964084S13129 1964 22 SI WA KATIE 1964-03-27 00:00:00 TS -16.7255 115.323 main 460 449 O_____P__O__O_ jtwc_sh SH281964 -16.2000 115.900 -1 -16.9329 115.101 -16.9000 115.200 TC 60 980 -17.0000 115.000 TC 60 980 8 236
1964084S13129 1964 22 SI WA KATIE 1964-03-27 01:00:00 TS -16.7941 115.213 980 bom main 453 446 P_____O__P__P_ SH281964 -16.2395 115.792 -1 -17.0000 115.000 980 -16.9522 115.096 TC -17.0639 114.907 TC 60 979 7 238
1964084S13129 1964 22 SI WA KATIE 1964-03-27 03:00:00 TS -16.8994 115.029 main 450 445 P_____P__P__P_ SH281964 -16.3000 115.585 -1 -17.1104 114.806 -17.0533 114.906 TC -17.1723 114.790 TC 62 978 6 238
1964084S13129 1964 22 SI WA KATIE 1964-03-27 06:00:00 TS -17.0387 114.809 main 449 434 O_____P__P__O_ jtwc_sh SH281964 -16.4000 115.300 -1 -17.2570 114.568 -17.1979 114.667 TC -17.3000 114.700 TC 65 976 5 234
1964084S13129 1964 22 SI WA KATIE 1964-03-27 09:00:00 TS -17.1748 114.626 main 439 435 P_____P__P__P_ SH281964 -16.5774 115.050 -1 -17.3860 114.387 -17.3358 114.475 TC -17.4000 114.592 TC 67 974 4 230
1964084S13129 1964 22 SI WA KATIE 1964-03-27 11:00:00 TS -17.2690 114.520 main 435 435 P_____P__P__P_ SH281964 -16.7223 114.886 -1 -17.4648 114.293 -17.4251 114.371 TC -17.4636 114.531 TC 69 972 4 226
1964084S13129 1964 22 SI WA KATIE 1964-03-27 12:00:00 TS -17.3180 114.470 main 435 428 O_____P__P__O_ jtwc_sh SH281964 -16.8000 114.800 -1 -17.5028 114.253 -17.4693 114.325 TC -17.5000 114.500 TC 70 972 4 223
1964084S13129 1964 22 SI WA KATIE 1964-03-27 15:00:00 TS -17.4783 114.313 main 428 424 P_____P__P__P_ SH281964 -17.0501 114.478 -1 -17.6128 114.157 -17.6004 114.209 TC -17.6500 114.408 TC 72 970 4 221
1964084S13129 1964 22 SI WA KATIE 1964-03-27 18:00:00 TS -17.6382 114.178 main 424 410 O_____P__P__O_ jtwc_sh SH281964 -17.3000 114.200 -1 -17.7215 114.091 -17.7312 114.121 TC -17.8000 114.300 TC 75 968 4 217
1964084S13129 1964 22 SI WA KATIE 1964-03-27 21:00:00 TS -17.7801 114.076 main 410 407 P_____P__P__P_ SH281964 -17.5224 114.062 -1 -17.8342 114.045 -17.8638 114.053 TC -17.9000 114.143 TC 77 966 3 212
1964084S13129 1964 22 SI WA KATIE 1964-03-27 23:00:00 TS -17.8698 114.024 main 407 407 P_____P__P__P_ SH281964 -17.6473 114.017 -1 -17.9142 114.021 -17.9541 114.017 TC -17.9636 114.041 TC 79 965 3 205
1964084S13129 1964 22 SI WA KATIE 1964-03-28 00:00:00 TS -17.9141 114.003 main 407 398 O_____P__O__O_ jtwc_sh SH281964 -17.7000 114.000 -1 -17.9563 114.011 -18.0000 114.000 TC 80 965 -18.0000 114.000 TC 80 965 3 203
1964084S13129 1964 22 SI WA KATIE 1964-03-28 01:00:00 TS -17.9587 113.979 965 bom main 398 395 P_____O__P__P_ SH281964 -17.7447 113.975 -1 -18.0000 114.000 965 -18.0485 113.973 TC -18.0417 113.969 TC 80 965 3 207
1964084S13129 1964 22 SI WA KATIE 1964-03-28 03:00:00 TS -18.0505 113.935 main 395 386 P_____P__P__P_ SH281964 -17.8150 113.935 -1 -18.1054 113.953 -18.1465 113.926 TC -18.1350 113.927 TC 80 965 3 200
1964084S13129 1964 22 SI WA KATIE 1964-03-28 06:00:00 TS -18.1915 113.893 main 386 376 O_____P__P__O_ jtwc_sh SH281964 -17.9000 113.900 -1 -18.2706 113.897 -18.2953 113.873 TC -18.3000 113.900 TC 80 965 3 191
1964084S13129 1964 22 SI WA KATIE 1964-03-28 09:00:00 TS -18.3485 113.873 main 376 358 P_____P__P__P_ SH281964 -18.0075 113.900 -1 -18.4409 113.857 -18.4457 113.838 TC -18.5000 113.900 TC 80 965 3 185
1964084S13129 1964 22 SI WA KATIE 1964-03-28 11:00:00 TS -18.4528 113.866 main 358 358 P_____P__P__P_ SH281964 -18.0724 113.903 -1 -18.5556 113.836 -18.5466 113.822 TC -18.6364 113.903 TC 80 965 3 0
1964084S13129 1964 22 SI WA KATIE 1964-03-28 12:00:00 TS -18.5025 113.861 main 358 349 O_____P__P__O_ jtwc_sh SH281964 -18.1000 113.900 -1 -18.6129 113.828 -18.5971 113.816 TC -18.7000 113.900 TC 80 965 3 194
1964084S13129 1964 22 SI WA KATIE 1964-03-28 15:00:00 TS -18.6329 113.829 main 355 338 P_____P__P__P_ SH281964 -18.1425 113.850 -1 -18.7828 113.811 -18.7488 113.804 TC -18.8575 113.850 TC 80 965 3 192
1964084S13129 1964 22 SI WA KATIE 1964-03-28 18:00:00 TS -18.7618 113.800 main 338 338 O_____P__O__O_ jtwc_sh SH281964 -18.2000 113.800 -1 -18.9471 113.802 -18.9000 113.800 TC 80 965 -19.0000 113.800 TC 80 965 2 195
1964084S13129 1964 22 SI WA KATIE 1964-03-28 19:00:00 TS -18.7950 113.795 965 bom main 338 329 P_____O__P__P_ SH281964 -18.2176 113.792 -1 -19.0000 113.800 965 -18.9334 113.796 TC 80 965 -19.0290 113.792 TC 80 965 2 0
1964084S13129 1964 22 SI WA KATIE 1964-03-28 21:00:00 TS -18.8597 113.789 main 329 321 P_____P__P__P_ SH281964 -18.2750 113.785 -1 -19.0657 113.792 965 -19.0081 113.792 TC 80 965 -19.0900 113.785 TC 80 965 3 0
1964084S13129 1964 22 SI WA KATIE 1964-03-28 23:00:00 TS -18.9692 113.793 main 321 312 P_____P__P__P_ SH281964 -18.3991 113.792 -1 -19.1534 113.792 965 -19.1201 113.795 TC 80 965 -19.2043 113.792 TC 80 965 4 0
1964084S13129 1964 22 SI WA KATIE 1964-03-29 00:00:00 TS -19.0543 113.799 main 312 312 O_____P__O__O_ jtwc_sh SH281964 -18.5000 113.800 -1 -19.2171 113.794 965 -19.2000 113.800 TC 80 965 -19.3000 113.800 TC 80 965 6 178
1964084S13129 1964 22 SI WA KATIE 1964-03-29 01:00:00 TS -19.1669 113.809 965 bom main 302 280 P_____O__P__P_ SH281964 -18.6350 113.814 -1 -19.3000 113.800 965 -19.3027 113.812 TC 80 964 -19.4298 113.811 TC 80 964 8 173
1964084S13129 1964 22 SI WA KATIE 1964-03-29 03:00:00 TS -19.4268 113.843 main 280 223 P_____P__P__P_ SH281964 -18.9825 113.850 -1 -19.3929 113.831 964 -19.5644 113.847 TC 81 963 -19.7675 113.842 TC 82 964 9 174
1964084S13129 1964 22 SI WA KATIE 1964-03-29 06:00:00 TS -19.9283 113.903 main 223 156 O_____P__P__O_ jtwc_sh SH281964 -19.6000 113.900 -1 -19.6436 113.900 962 -20.0695 113.913 TC 82 962 -20.4000 113.900 TC 85 963 11 175
1964084S13129 1964 22 SI WA KATIE 1964-03-29 09:00:00 TS -20.5457 113.956 main 156 100 P_____P__P__P_ SH281964 -20.2075 113.922 -1 -20.2107 113.966 961 -20.6648 113.972 TC 83 961 -21.1000 113.965 TC 85 961 13 176
1964084S13129 1964 22 SI WA KATIE 1964-03-29 11:00:00 TS -21.0344 113.975 main 100 67 P_____P__P__P_ SH281964 -20.6088 113.914 -1 -20.8661 113.994 960 -21.0869 113.996 TC 84 960 -21.5759 113.995 TC 85 960 15 0
1964084S13129 1964 22 SI WA KATIE 1964-03-29 12:00:00 TS -21.3000 113.975 960 bom main 67 44 O_____O__O__O_ jtwc_sh SH281964 -20.8000 113.900 -1 -21.3000 114.000 960 -21.3000 114.000 TC 85 960 -21.8000 114.000 TC 85 960 16 183
1964084S13129 1964 22 SI WA KATIE 1964-03-29 13:00:00 TS -21.5705 113.972 960 bom main 33 0 P_____O__P__P_ SH281964 -20.9781 113.881 -1 -21.8000 114.000 960 -21.5037 114.009 TC 82 961 -22.0004 113.997 TC 81 960 13 182
1964084S13129 1964 22 SI WA KATIE 1964-03-29 15:00:00 TS -21.9605 113.954 main 0 0 P_____P__P__P_ SH281964 -21.3150 113.823 -1 -22.2294 114.003 960 -21.9251 114.019 TC 78 965 -22.3725 113.973 TC 75 963 11 185
1964084S13129 1964 22 SI WA KATIE 1964-03-29 16:00:00 TS -22.1169 113.939 960 bom main 0 0 P_____O__P__P_ SH281964 -21.4775 113.785 -1 -22.3000 114.000 960 4 -22.1404 114.018 TC 76 966 -22.5496 113.952 TC 71 963 11 186
1964084S13129 1964 22 SI WA KATIE 1964-03-29 18:00:00 TS -22.4869 113.902 main 0 0 O_____P__P__O_ jtwc_sh SH281964 -21.8000 113.700 -1 -22.6743 114.011 964 -22.5734 113.995 TC 72 970 -22.9000 113.900 TC 65 966 11 187
1964084S13129 1964 22 SI WA KATIE 1964-03-29 21:00:00 TS -23.0628 113.826 main 0 0 P_____P__P__P_ SH281964 -22.3150 113.565 -1 -23.2688 113.986 971 -23.2100 113.899 TC 66 975 -23.4573 113.852 TC 57 973 12 190
1964084S13129 1964 22 SI WA KATIE 1964-03-29 23:00:00 TS -23.4327 113.725 main 10 10 P_____P__P__P_ SH281964 -22.6447 113.458 -1 -23.6530 113.893 975 -23.6107 113.780 TC 62 978 -23.8223 113.770 TC 52 977 11 196
1964084S13129 1964 22 SI WA KATIE 1964-03-30 00:00:00 TS -23.6082 113.653 main 10 10 O_____P__O__O_ jtwc_sh SH281964 -22.8000 113.400 -1 -23.8326 113.811 977 -23.8000 113.700 TC 60 980 -24.0000 113.700 TC 50 980 11 204
1964084S13129 1964 22 SI WA KATIE 1964-03-30 01:00:00 TS -23.7753 113.557 980 bom main 0 0 P_____O__P__P_ SH281964 -22.9395 113.339 -1 -24.0000 113.700 980 -23.9814 113.600 TC 60 980 -24.1804 113.588 TC 51 980 11 212
1964084S13129 1964 22 SI WA KATIE 1964-03-30 03:00:00 TS -24.0891 113.320 980 bom main 20 20 P_____O__P__P_ SH281964 -23.2000 113.207 -1 -24.3000 113.400 980 -24.3262 113.365 TC 60 980 -24.5304 113.308 TC 55 980 11 214
1964084S13129 1964 22 SI WA KATIE 1964-03-30 06:00:00 TS -24.5560 112.978 main 46 46 O_____P__O__O_ jtwc_sh SH281964 -23.6000 113.000 -1 -24.8240 113.011 980 -24.8000 113.000 TC 60 980 -25.0000 112.900 TC 60 980 11 212
1964084S13129 1964 22 SI WA KATIE 1964-03-30 07:00:00 TS -24.7093 112.888 980 bom main 60 60 P_____O__P__P_ SH281964 -23.7526 112.933 -1 -25.0000 112.900 980 -24.9510 112.896 TC -25.1337 112.821 TC 59 980 10 207
1964084S13129 1964 22 SI WA KATIE 1964-03-30 09:00:00 TS -24.9987 112.725 main 91 91 P_____P__P__P_ SH281964 -24.0775 112.800 -1 -25.3093 112.683 -25.2356 112.706 TC -25.3723 112.712 TC 57 982 9 206
1964084S13129 1964 22 SI WA KATIE 1964-03-30 11:00:00 TS -25.2751 112.584 main 91 91 P_____P__P__P_ SH281964 -24.4224 112.667 -1 -25.5874 112.495 -25.4995 112.538 TC -25.5911 112.637 TC 55 984 9 204
1964084S13129 1964 22 SI WA KATIE 1964-03-30 12:00:00 TS -25.4101 112.519 main 96 92 O_____P__P__O_ jtwc_sh SH281964 -24.6000 112.600 -1 -25.7160 112.412 -25.6245 112.464 TC -25.7000 112.600 TC 55 985 9 203
1964084S13129 1964 22 SI WA KATIE 1964-03-30 15:00:00 TS -25.8087 112.328 main 105 100 P_____P__P__P_ SH281964 -25.1350 112.378 -1 -26.0662 112.208 -25.9760 112.278 TC -26.0575 112.450 TC 50 987 8 201
1964084S13129 1964 22 SI WA KATIE 1964-03-30 18:00:00 TS -26.1933 112.181 main 109 109 O_____P__P__O_ jtwc_sh SH281964 -25.7000 112.200 -1 -26.3735 112.069 -26.2996 112.153 TC -26.4000 112.300 TC 45 990 8 197
1964084S13129 1964 22 SI WA KATIE 1964-03-30 21:00:00 TS -26.5715 112.065 main 123 123 P_____P__P__P_ SH281964 -26.3149 112.083 -1 -26.6516 111.995 -26.6045 112.093 TC -26.7150 112.090 TC 42 992 8 191
1964084S13129 1964 22 SI WA KATIE 1964-03-30 23:00:00 TS -26.8130 112.038 main 140 140 P_____P__P__P_ SH281964 -26.7144 112.075 -1 -26.8273 111.983 -26.8020 112.090 TC -26.9083 112.005 TC 40 994 7 0
1964084S13129 1964 22 SI WA KATIE 1964-03-31 00:00:00 TS -26.9284 112.047 main 145 136 O_____P__O__O_ jtwc_sh SH281964 -26.9000 112.100 -1 -26.9138 111.988 -26.9000 112.100 TC 40 995 -27.0000 112.000 TC 40 995 7 173
1964084S13129 1964 22 SI WA KATIE 1964-03-31 01:00:00 TS -27.0385 112.075 995 bom main 142 142 P_____O__P__P_ SH281964 -27.0697 112.141 -1 -27.0000 112.000 995 -26.9979 112.118 TC -27.0865 112.040 TC 39 995 7 164
1964084S13129 1964 22 SI WA KATIE 1964-03-31 03:00:00 TS -27.2485 112.156 main 148 150 P_____P__P__P_ SH281964 -27.3799 112.282 -1 -27.1702 111.966 -27.1937 112.178 TC -27.2501 112.197 TC 37 995 7 155
1964084S13129 1964 22 SI WA KATIE 1964-03-31 06:00:00 TS -27.5481 112.345 main 156 147 O_____P__P__O_ jtwc_sh SH281964 -27.8000 112.600 -1 -27.4054 111.958 -27.4870 112.321 TC -27.5000 112.500 TC 35 996 7 150
1964084S13129 1964 22 SI WA KATIE 1964-03-31 09:00:00 TS -27.8575 112.553 main 147 139 P_____P__P__P_ SH281964 -28.2225 112.977 -1 -27.6278 112.011 -27.7799 112.522 TC -27.7999 112.700 TC 35 997 7 147
1964084S13129 1964 22 SI WA KATIE 1964-03-31 11:00:00 TS -28.0584 112.715 main 141 131 P_____P__P__P_ SH281964 -28.4807 113.259 -1 -27.7750 112.086 -27.9748 112.686 TC -28.0030 112.830 TC 35 997 7 143
1964084S13129 1964 22 SI WA KATIE 1964-03-31 12:00:00 TS -28.1554 112.803 main 135 112 O_____P__P__O_ jtwc_sh SH281964 -28.6000 113.400 -1 -27.8497 112.136 -28.0721 112.776 TC -28.1000 112.900 TC 35 998 7 138
1964084S13129 1964 22 SI WA KATIE 1964-03-31 15:00:00 TS -28.4279 113.091 main 112 102 P_____P__P__P_ SH281964 -28.9073 113.793 -1 -28.0834 112.345 -28.3633 113.075 TC -28.3575 113.150 TC 32 998 8 135
1964084S13129 1964 22 SI WA KATIE 1964-03-31 18:00:00 TS -28.6986 113.416 main 102 80 O_____P__P__O_ jtwc_sh SH281964 -29.2000 114.200 -1 -28.3409 112.650 -28.6535 113.412 TC -28.6000 113.400 TC 30 999 8 134
1964084S13129 1964 22 SI WA KATIE 1964-03-31 21:00:00 TS -28.9827 113.755 main 80 73 P_____P__P__P_ SH281964 -29.5198 114.628 -1 -28.6340 113.062 -28.9424 113.780 TC -28.8345 113.548 TC 30 999 9 133
1964084S13129 1964 22 SI WA KATIE 1964-03-31 23:00:00 TS -29.1894 114.017 main 73 65 P_____P__P__P_ SH281964 -29.7634 114.936 -1 -28.8549 113.402 -29.1341 114.039 TC -29.0049 113.691 TC 30 999 10 131
1964084S13129 1964 22 SI WA KATIE 1964-04-01 00:00:00 TS -29.3010 114.167 main 65 65 O_____P__P__O_ jtwc_sh SH281964 -29.9000 115.100 -1 -28.9742 113.594 -29.2298 114.172 TC -29.1000 113.800 TC 30 1000 11 131
1964084S13129 1964 22 SI WA KATIE 1964-04-01 01:00:00 TS -29.4234 114.328 1000 bom main 65 28 P_____O__P__P_ SH281964 -30.0494 115.264 -1 -29.1000 113.800 1000 -29.3252 114.307 TC -29.1945 113.934 TC 28 1000 12 130
1964084S13129 1964 22 SI WA KATIE 1964-04-01 03:00:00 TS -29.6876 114.693 main 28 0 P_____P__P__P_ SH281964 -30.3771 115.613 -1 -29.3673 114.241 -29.5157 114.581 TC -29.4044 114.281 TC 25 1002 14 128
1964084S13129 1964 22 SI WA KATIE 1964-04-01 06:00:00 TS -30.1385 115.369 bom main 0 0 O_____O__O__O_ jtwc_sh SH281964 -30.9000 116.200 -1 -29.8000 115.000 -29.8000 115.000 TC -29.8000 115.000 TC 20 1004 17 127
1964084S13129 1964 22 SI WA KATIE 1964-04-01 09:00:00 TS -30.6912 116.236 main 0 0 P_____P_____P_ SH281964 -31.3996 116.856 -1 -30.2633 115.842 TC -30.3171 115.937 TC 17 1006 19 126
1964084S13129 1964 22 SI WA KATIE 1964-04-01 11:00:00 TS -31.0674 116.839 main 0 0 P_____P_____P_ SH281964 -31.7330 117.342 -1 -30.5838 116.437 TC -30.7031 116.638 TC 15 1007 21 128
1964084S13129 1964 22 SI WA KATIE 1964-04-01 12:00:00 TS -31.3423 117.203 main 0 0 O_____P_____O_ jtwc_sh SH281964 -31.9000 117.600 -1 -30.7462 116.742 TC -30.9000 117.000 TC 15 1008 21 128
1964084S13129 1964 22 SI WA KATIE 1964-04-01 15:00:00 NR -31.9355 118.128 main 0 0 P_____P_______ SH281964 -32.4013 118.425 -1 -31.2367 117.682 TC TC 21 128
1964084S13129 1964 22 SI WA KATIE 1964-04-01 16:00:00 NR -32.1787 118.476 1008 bom main 0 0 P_____O_______ SH281964 -32.5680 118.713 -1 -31.4000 118.000 1008 TC TC 28 134
1964084S13129 1964 22 SI WA KATIE 1964-04-01 18:00:00 NR -32.9000 119.300 main 0 O_____________ jtwc_sh SH281964 -32.9000 119.300 -1 TC 30 136

IBTrACS Databaseについて

本データベースは、米国NOAAが公開する1842年以降の世界の熱帯低気圧のベストトラックデータアーカイブInternational Best Track Archive for Climate Stewardship (IBTrACS)を、ウェブで閲覧しやすい形式に変換したものです。

最終更新日:2021-10-27